sensor_id;sensor_type;location;lat;lon;timestamp;pressure;altitude;pressure_sealevel;temperature;humidity
74627;BME280;63132;52.268;5.192;2022-12-11T00:01:56;101011.88;;;0.63;100.00
74627;BME280;63132;52.268;5.192;2022-12-11T00:04:22;101011.28;;;0.78;100.00
74627;BME280;63132;52.268;5.192;2022-12-11T00:06:48;101011.63;;;0.97;99.44
74627;BME280;63132;52.268;5.192;2022-12-11T00:09:17;101009.16;;;0.63;100.00
74627;BME280;63132;52.268;5.192;2022-12-11T00:11:43;101001.78;;;0.63;99.29
74627;BME280;63132;52.268;5.192;2022-12-11T00:14:08;101003.75;;;0.33;100.00
74627;BME280;63132;52.268;5.192;2022-12-11T00:16:34;101001.69;;;0.51;100.00
74627;BME280;63132;52.268;5.192;2022-12-11T00:18:59;101008.41;;;0.33;100.00
74627;BME280;63132;52.268;5.192;2022-12-11T00:21:25;101007.31;;;0.75;100.00
74627;BME280;63132;52.268;5.192;2022-12-11T00:23:51;101020.03;;;0.42;100.00
74627;BME280;63132;52.268;5.192;2022-12-11T00:26:16;101013.66;;;0.59;100.00
74627;BME280;63132;52.268;5.192;2022-12-11T00:28:43;101014.34;;;0.97;100.00
74627;BME280;63132;52.268;5.192;2022-12-11T00:31:13;101026.34;;;0.96;99.56
74627;BME280;63132;52.268;5.192;2022-12-11T00:33:38;101026.47;;;1.21;98.83
74627;BME280;63132;52.268;5.192;2022-12-11T00:36:10;101018.03;;;1.14;98.04
74627;BME280;63132;52.268;5.192;2022-12-11T00:38:35;101016.84;;;1.02;98.38
74627;BME280;63132;52.268;5.192;2022-12-11T00:41:01;101014.41;;;0.89;99.99
74627;BME280;63132;52.268;5.192;2022-12-11T00:43:27;101010.25;;;1.03;100.00
74627;BME280;63132;52.268;5.192;2022-12-11T00:45:52;101016.47;;;0.92;99.13
74627;BME280;63132;52.268;5.192;2022-12-11T00:48:18;101010.31;;;0.82;100.00
74627;BME280;63132;52.268;5.192;2022-12-11T00:50:43;101013.56;;;0.76;100.00
74627;BME280;63132;52.268;5.192;2022-12-11T00:53:08;101012.63;;;0.93;100.00
74627;BME280;63132;52.268;5.192;2022-12-11T00:55:38;101004.44;;;1.26;99.59
74627;BME280;63132;52.268;5.192;2022-12-11T00:58:04;101002.56;;;1.05;98.62
74627;BME280;63132;52.268;5.192;2022-12-11T01:00:30;101009.63;;;1.19;99.63
74627;BME280;63132;52.268;5.192;2022-12-11T01:02:55;100997.97;;;1.30;98.87
74627;BME280;63132;52.268;5.192;2022-12-11T01:05:21;100999.47;;;1.28;98.41
74627;BME280;63132;52.268;5.192;2022-12-11T01:07:46;100993.19;;;1.27;98.69
74627;BME280;63132;52.268;5.192;2022-12-11T01:10:12;100993.41;;;1.22;99.48
74627;BME280;63132;52.268;5.192;2022-12-11T01:12:52;100986.38;;;1.21;98.41
74627;BME280;63132;52.268;5.192;2022-12-11T01:15:19;100989.34;;;1.28;98.80
74627;BME280;63132;52.268;5.192;2022-12-11T01:17:44;100989.59;;;1.02;99.69
74627;BME280;63132;52.268;5.192;2022-12-11T01:20:10;100987.34;;;1.04;100.00
74627;BME280;63132;52.268;5.192;2022-12-11T01:22:36;100988.19;;;0.96;100.00
74627;BME280;63132;52.268;5.192;2022-12-11T01:25:01;100982.72;;;0.96;100.00
74627;BME280;63132;52.268;5.192;2022-12-11T01:27:27;100991.84;;;1.00;100.00
74627;BME280;63132;52.268;5.192;2022-12-11T01:29:52;100989.28;;;1.16;98.62
74627;BME280;63132;52.268;5.192;2022-12-11T01:32:18;100986.13;;;1.14;99.96
74627;BME280;63132;52.268;5.192;2022-12-11T01:34:43;100990.50;;;1.06;100.00
74627;BME280;63132;52.268;5.192;2022-12-11T01:37:09;100984.22;;;1.27;100.00
74627;BME280;63132;52.268;5.192;2022-12-11T01:39:35;100986.50;;;1.04;99.91
74627;BME280;63132;52.268;5.192;2022-12-11T01:42:02;100985.25;;;1.01;99.55
74627;BME280;63132;52.268;5.192;2022-12-11T01:46:53;100981.81;;;0.92;100.00
74627;BME280;63132;52.268;5.192;2022-12-11T01:49:21;100995.97;;;1.06;100.00
74627;BME280;63132;52.268;5.192;2022-12-11T01:51:53;100986.50;;;1.04;100.00
74627;BME280;63132;52.268;5.192;2022-12-11T01:54:23;100998.91;;;1.01;100.00
74627;BME280;63132;52.268;5.192;2022-12-11T01:56:51;100996.94;;;1.23;99.97
74627;BME280;63132;52.268;5.192;2022-12-11T01:59:20;100988.50;;;1.16;99.29
74627;BME280;63132;52.268;5.192;2022-12-11T02:01:56;100991.84;;;1.00;99.02
74627;BME280;63132;52.268;5.192;2022-12-11T02:04:23;100992.41;;;1.27;99.39
74627;BME280;63132;52.268;5.192;2022-12-11T02:06:50;100998.31;;;1.29;98.84
74627;BME280;63132;52.268;5.192;2022-12-11T02:09:20;100987.31;;;1.37;98.78
74627;BME280;63132;52.268;5.192;2022-12-11T02:16:55;100981.94;;;1.29;98.93
74627;BME280;63132;52.268;5.192;2022-12-11T02:22:11;100981.50;;;1.27;99.13
74627;BME280;63132;52.268;5.192;2022-12-11T02:24:51;100976.84;;;1.39;97.43
74627;BME280;63132;52.268;5.192;2022-12-11T02:27:22;100980.63;;;1.47;98.02
74627;BME280;63132;52.268;5.192;2022-12-11T02:29:57;100976.03;;;1.27;98.60
74627;BME280;63132;52.268;5.192;2022-12-11T02:35:12;100967.75;;;1.02;100.00
74627;BME280;63132;52.268;5.192;2022-12-11T02:37:43;100964.34;;;0.93;100.00
74627;BME280;63132;52.268;5.192;2022-12-11T02:40:11;100967.22;;;1.09;100.00
74627;BME280;63132;52.268;5.192;2022-12-11T02:42:39;100966.72;;;0.95;100.00
74627;BME280;63132;52.268;5.192;2022-12-11T02:45:07;100957.19;;;1.46;99.44
74627;BME280;63132;52.268;5.192;2022-12-11T02:47:36;100958.34;;;1.45;98.24
74627;BME280;63132;52.268;5.192;2022-12-11T02:50:06;100963.34;;;1.43;97.83
74627;BME280;63132;52.268;5.192;2022-12-11T02:52:34;100959.81;;;1.43;97.64
74627;BME280;63132;52.268;5.192;2022-12-11T02:55:02;100960.63;;;1.43;97.93
74627;BME280;63132;52.268;5.192;2022-12-11T02:57:37;100967.44;;;1.61;97.76
74627;BME280;63132;52.268;5.192;2022-12-11T03:00:04;100962.44;;;1.51;97.00
74627;BME280;63132;52.268;5.192;2022-12-11T03:02:30;100953.06;;;1.28;98.72
74627;BME280;63132;52.268;5.192;2022-12-11T03:04:56;100964.94;;;1.56;98.16
74627;BME280;63132;52.268;5.192;2022-12-11T03:07:26;100963.91;;;1.49;97.81
74627;BME280;63132;52.268;5.192;2022-12-11T03:09:52;100965.59;;;1.29;97.81
74627;BME280;63132;52.268;5.192;2022-12-11T03:12:24;100965.34;;;1.22;97.78
74627;BME280;63132;52.268;5.192;2022-12-11T03:14:52;100960.22;;;1.32;97.10
74627;BME280;63132;52.268;5.192;2022-12-11T03:20:36;100960.13;;;1.29;98.55
74627;BME280;63132;52.268;5.192;2022-12-11T03:23:11;100956.47;;;1.25;98.98
74627;BME280;63132;52.268;5.192;2022-12-11T03:25:52;100958.19;;;0.96;99.24
74627;BME280;63132;52.268;5.192;2022-12-11T03:30:51;100951.53;;;1.51;97.47
74627;BME280;63132;52.268;5.192;2022-12-11T03:33:22;100951.09;;;1.16;97.87
74627;BME280;63132;52.268;5.192;2022-12-11T03:35:55;100946.44;;;1.17;97.62
74627;BME280;63132;52.268;5.192;2022-12-11T03:38:26;100947.28;;;0.96;98.72
74627;BME280;63132;52.268;5.192;2022-12-11T03:40:55;100943.81;;;1.08;99.61
74627;BME280;63132;52.268;5.192;2022-12-11T03:43:22;100947.00;;;1.10;99.88
74627;BME280;63132;52.268;5.192;2022-12-11T03:45:49;100946.00;;;1.15;100.00
74627;BME280;63132;52.268;5.192;2022-12-11T03:48:17;100947.78;;;1.10;99.59
74627;BME280;63132;52.268;5.192;2022-12-11T03:50:44;100951.13;;;0.83;100.00
74627;BME280;63132;52.268;5.192;2022-12-11T03:53:11;100943.63;;;0.59;100.00
74627;BME280;63132;52.268;5.192;2022-12-11T03:55:37;100944.47;;;0.72;100.00
74627;BME280;63132;52.268;5.192;2022-12-11T03:58:03;100952.13;;;0.58;100.00
74627;BME280;63132;52.268;5.192;2022-12-11T04:00:29;100941.44;;;0.52;100.00
74627;BME280;63132;52.268;5.192;2022-12-11T04:02:54;100948.13;;;0.76;100.00
74627;BME280;63132;52.268;5.192;2022-12-11T04:05:53;100941.66;;;0.80;100.00
74627;BME280;63132;52.268;5.192;2022-12-11T04:08:20;100939.19;;;0.88;100.00
74627;BME280;63132;52.268;5.192;2022-12-11T04:10:46;100940.00;;;0.88;100.00
74627;BME280;63132;52.268;5.192;2022-12-11T04:13:12;100942.06;;;0.91;100.00
74627;BME280;63132;52.268;5.192;2022-12-11T04:15:39;100944.66;;;0.88;100.00
74627;BME280;63132;52.268;5.192;2022-12-11T04:18:05;100946.88;;;0.73;100.00
74627;BME280;63132;52.268;5.192;2022-12-11T04:20:54;100937.38;;;0.59;100.00
74627;BME280;63132;52.268;5.192;2022-12-11T04:23:38;100949.06;;;0.59;100.00
74627;BME280;63132;52.268;5.192;2022-12-11T04:26:22;100948.00;;;0.72;100.00
74627;BME280;63132;52.268;5.192;2022-12-11T04:28:48;100954.75;;;0.87;100.00
74627;BME280;63132;52.268;5.192;2022-12-11T04:31:15;100948.69;;;0.69;100.00
74627;BME280;63132;52.268;5.192;2022-12-11T04:33:41;100947.63;;;0.62;100.00
74627;BME280;63132;52.268;5.192;2022-12-11T04:36:08;100944.72;;;0.79;100.00
74627;BME280;63132;52.268;5.192;2022-12-11T04:38:34;100942.94;;;0.83;100.00
74627;BME280;63132;52.268;5.192;2022-12-11T04:41:01;100948.09;;;0.97;100.00
74627;BME280;63132;52.268;5.192;2022-12-11T04:43:27;100948.09;;;0.97;99.90
74627;BME280;63132;52.268;5.192;2022-12-11T04:46:08;100939.00;;;0.93;99.32
74627;BME280;63132;52.268;5.192;2022-12-11T04:48:34;100940.50;;;1.02;100.00
74627;BME280;63132;52.268;5.192;2022-12-11T04:51:00;100936.34;;;1.17;100.00
74627;BME280;63132;52.268;5.192;2022-12-11T04:53:26;100932.16;;;1.20;98.25
74627;BME280;63132;52.268;5.192;2022-12-11T04:55:51;100921.94;;;0.96;99.66
74627;BME280;63132;52.268;5.192;2022-12-11T04:58:17;100926.34;;;0.76;100.00
74627;BME280;63132;52.268;5.192;2022-12-11T05:00:42;100922.94;;;0.79;100.00
74627;BME280;63132;52.268;5.192;2022-12-11T05:03:08;100926.84;;;0.90;100.00
74627;BME280;63132;52.268;5.192;2022-12-11T05:05:33;100923.72;;;1.25;98.72
74627;BME280;63132;52.268;5.192;2022-12-11T05:07:58;100929.13;;;1.00;98.56
74627;BME280;63132;52.268;5.192;2022-12-11T05:10:24;100924.94;;;1.03;99.06
74627;BME280;63132;52.268;5.192;2022-12-11T05:12:49;100928.59;;;1.19;98.77
74627;BME280;63132;52.268;5.192;2022-12-11T05:15:15;100930.47;;;1.27;98.85
74627;BME280;63132;52.268;5.192;2022-12-11T05:17:40;100939.91;;;0.97;98.69
74627;BME280;63132;52.268;5.192;2022-12-11T05:20:06;100930.53;;;1.06;100.00
74627;BME280;63132;52.268;5.192;2022-12-11T05:22:32;100931.94;;;0.92;99.08
74627;BME280;63132;52.268;5.192;2022-12-11T05:24:57;100941.28;;;1.03;98.06
74627;BME280;63132;52.268;5.192;2022-12-11T05:27:23;100927.94;;;1.22;97.85
74627;BME280;63132;52.268;5.192;2022-12-11T05:29:48;100930.09;;;1.17;97.25
74627;BME280;63132;52.268;5.192;2022-12-11T05:32:14;100928.44;;;0.91;98.49
74627;BME280;63132;52.268;5.192;2022-12-11T05:34:39;100925.22;;;0.89;99.76
74627;BME280;63132;52.268;5.192;2022-12-11T05:37:04;100911.78;;;1.05;99.80
74627;BME280;63132;52.268;5.192;2022-12-11T05:39:30;100917.81;;;1.23;98.96
74627;BME280;63132;52.268;5.192;2022-12-11T05:41:55;100921.34;;;0.78;99.41
74627;BME280;63132;52.268;5.192;2022-12-11T05:44:21;100913.97;;;0.78;100.00
74627;BME280;63132;52.268;5.192;2022-12-11T05:46:46;100919.34;;;0.66;100.00
74627;BME280;63132;52.268;5.192;2022-12-11T05:49:12;100918.72;;;0.81;100.00
74627;BME280;63132;52.268;5.192;2022-12-11T05:51:37;100917.53;;;0.91;100.00
74627;BME280;63132;52.268;5.192;2022-12-11T05:54:04;100918.44;;;0.95;100.00
74627;BME280;63132;52.268;5.192;2022-12-11T05:56:31;100907.53;;;0.95;99.98
74627;BME280;63132;52.268;5.192;2022-12-11T05:58:57;100919.47;;;0.91;100.00
74627;BME280;63132;52.268;5.192;2022-12-11T06:01:35;100912.06;;;0.91;100.00
74627;BME280;63132;52.268;5.192;2022-12-11T06:04:03;100907.16;;;0.85;99.97
74627;BME280;63132;52.268;5.192;2022-12-11T06:06:29;100906.44;;;1.08;100.00
74627;BME280;63132;52.268;5.192;2022-12-11T06:08:57;100908.66;;;0.82;100.00
74627;BME280;63132;52.268;5.192;2022-12-11T06:11:24;100905.97;;;0.73;100.00
74627;BME280;63132;52.268;5.192;2022-12-11T06:13:50;100907.16;;;0.85;100.00
74627;BME280;63132;52.268;5.192;2022-12-11T06:16:16;100906.53;;;0.67;100.00
74627;BME280;63132;52.268;5.192;2022-12-11T06:18:43;100908.88;;;0.56;100.00
74627;BME280;63132;52.268;5.192;2022-12-11T06:21:21;100910.06;;;0.67;100.00
74627;BME280;63132;52.268;5.192;2022-12-11T06:23:49;100906.28;;;0.93;100.00
74627;BME280;63132;52.268;5.192;2022-12-11T06:26:15;100907.44;;;0.71;100.00
74627;BME280;63132;52.268;5.192;2022-12-11T06:28:41;100905.91;;;0.82;99.73
74627;BME280;63132;52.268;5.192;2022-12-11T06:31:07;100903.09;;;0.58;100.00
74627;BME280;63132;52.268;5.192;2022-12-11T06:33:32;100906.72;;;0.82;100.00
74627;BME280;63132;52.268;5.192;2022-12-11T06:36:03;100907.88;;;0.61;100.00
74627;BME280;63132;52.268;5.192;2022-12-11T06:38:28;100914.69;;;0.67;100.00
74627;BME280;63132;52.268;5.192;2022-12-11T06:40:58;100909.31;;;0.79;100.00
74627;BME280;63132;52.268;5.192;2022-12-11T06:43:24;100915.66;;;0.50;100.00
74627;BME280;63132;52.268;5.192;2022-12-11T06:45:50;100913.34;;;0.73;100.00
74627;BME280;63132;52.268;5.192;2022-12-11T06:48:16;100917.75;;;0.65;100.00
74627;BME280;63132;52.268;5.192;2022-12-11T06:50:42;100921.69;;;0.55;100.00
74627;BME280;63132;52.268;5.192;2022-12-11T06:53:08;100921.31;;;0.45;100.00
74627;BME280;63132;52.268;5.192;2022-12-11T06:55:34;100925.56;;;0.88;100.00
74627;BME280;63132;52.268;5.192;2022-12-11T06:58:00;100930.06;;;0.71;100.00
74627;BME280;63132;52.268;5.192;2022-12-11T07:00:26;100917.69;;;0.74;99.60
74627;BME280;63132;52.268;5.192;2022-12-11T07:02:51;100928.31;;;0.67;100.00
74627;BME280;63132;52.268;5.192;2022-12-11T07:05:17;100928.75;;;0.57;100.00
74627;BME280;63132;52.268;5.192;2022-12-11T07:07:42;100929.88;;;0.35;100.00
74627;BME280;63132;52.268;5.192;2022-12-11T07:10:08;100929.88;;;0.35;100.00
74627;BME280;63132;52.268;5.192;2022-12-11T07:12:34;100935.06;;;0.48;100.00
74627;BME280;63132;52.268;5.192;2022-12-11T07:15:00;100930.31;;;0.58;100.00
74627;BME280;63132;52.268;5.192;2022-12-11T07:17:27;100935.06;;;0.81;100.00
74627;BME280;63132;52.268;5.192;2022-12-11T07:19:53;100935.31;;;0.76;100.00
74627;BME280;63132;52.268;5.192;2022-12-11T07:22:18;100935.84;;;0.70;100.00
74627;BME280;63132;52.268;5.192;2022-12-11T07:24:43;100932.34;;;0.81;100.00
74627;BME280;63132;52.268;5.192;2022-12-11T07:27:09;100937.94;;;0.85;99.96
74627;BME280;63132;52.268;5.192;2022-12-11T07:29:34;100937.97;;;0.64;99.79
74627;BME280;63132;52.268;5.192;2022-12-11T07:31:59;100938.97;;;0.60;100.00
74627;BME280;63132;52.268;5.192;2022-12-11T07:34:25;100938.31;;;0.63;100.00
74627;BME280;63132;52.268;5.192;2022-12-11T07:36:50;100935.41;;;0.80;98.73
74627;BME280;63132;52.268;5.192;2022-12-11T07:39:16;100935.69;;;0.66;98.91
74627;BME280;63132;52.268;5.192;2022-12-11T07:41:41;100947.50;;;1.24;97.99
74627;BME280;63132;52.268;5.192;2022-12-11T07:44:07;100942.00;;;0.79;99.07
74627;BME280;63132;52.268;5.192;2022-12-11T07:46:33;100943.66;;;0.92;99.01
74627;BME280;63132;52.268;5.192;2022-12-11T07:48:58;100954.09;;;0.90;99.75
74627;BME280;63132;52.268;5.192;2022-12-11T07:51:30;100944.88;;;0.82;98.60
74627;BME280;63132;52.268;5.192;2022-12-11T07:54:04;100942.09;;;0.70;100.00
74627;BME280;63132;52.268;5.192;2022-12-11T07:56:30;100943.22;;;0.69;100.00
74627;BME280;63132;52.268;5.192;2022-12-11T07:58:58;100940.09;;;0.59;100.00
74627;BME280;63132;52.268;5.192;2022-12-11T08:01:26;100941.31;;;0.49;100.00
74627;BME280;63132;52.268;5.192;2022-12-11T08:03:52;100954.31;;;0.85;100.00
74627;BME280;63132;52.268;5.192;2022-12-11T08:06:18;100944.66;;;0.67;99.54
74627;BME280;63132;52.268;5.192;2022-12-11T08:08:45;100951.06;;;0.71;98.48
74627;BME280;63132;52.268;5.192;2022-12-11T08:11:14;100953.34;;;0.48;99.45
74627;BME280;63132;52.268;5.192;2022-12-11T08:13:40;100955.91;;;0.44;99.98
74627;BME280;63132;52.268;5.192;2022-12-11T08:16:07;100954.31;;;0.43;100.00
74627;BME280;63132;52.268;5.192;2022-12-11T08:18:34;100955.41;;;0.30;100.00
74627;BME280;63132;52.268;5.192;2022-12-11T08:21:07;100956.31;;;0.34;100.00
74627;BME280;63132;52.268;5.192;2022-12-11T08:23:33;100956.13;;;0.60;100.00
74627;BME280;63132;52.268;5.192;2022-12-11T08:25:58;100957.38;;;0.83;99.46
74627;BME280;63132;52.268;5.192;2022-12-11T08:28:25;100967.59;;;0.87;98.90
74627;BME280;63132;52.268;5.192;2022-12-11T08:30:51;100971.09;;;0.75;99.28
74627;BME280;63132;52.268;5.192;2022-12-11T08:33:16;100967.94;;;0.64;100.00
74627;BME280;63132;52.268;5.192;2022-12-11T08:35:41;100966.84;;;0.98;97.57
74627;BME280;63132;52.268;5.192;2022-12-11T08:38:08;100962.34;;;0.81;97.38
74627;BME280;63132;52.268;5.192;2022-12-11T08:40:33;100965.56;;;0.96;96.92
74627;BME280;63132;52.268;5.192;2022-12-11T08:42:58;100960.09;;;0.63;97.68
74627;BME280;63132;52.268;5.192;2022-12-11T08:45:24;100963.34;;;0.77;98.45
74627;BME280;63132;52.268;5.192;2022-12-11T08:47:51;100957.22;;;0.80;97.35
74627;BME280;63132;52.268;5.192;2022-12-11T08:50:18;100957.03;;;0.64;99.04
74627;BME280;63132;52.268;5.192;2022-12-11T08:52:43;100951.06;;;0.71;98.76
74627;BME280;63132;52.268;5.192;2022-12-11T08:55:09;100956.44;;;0.79;98.69
74627;BME280;63132;52.268;5.192;2022-12-11T08:57:34;100953.88;;;0.95;96.05
74627;BME280;63132;52.268;5.192;2022-12-11T09:00:00;100952.63;;;0.93;96.68
74627;BME280;63132;52.268;5.192;2022-12-11T09:02:25;100943.41;;;0.85;96.40
74627;BME280;63132;52.268;5.192;2022-12-11T09:04:51;100950.13;;;0.67;97.55
74627;BME280;63132;52.268;5.192;2022-12-11T09:07:16;100954.38;;;1.09;96.74
74627;BME280;63132;52.268;5.192;2022-12-11T09:09:42;100947.34;;;0.75;97.58
74627;BME280;63132;52.268;5.192;2022-12-11T09:12:07;100939.81;;;0.72;98.67
74627;BME280;63132;52.268;5.192;2022-12-11T09:14:32;100940.78;;;1.34;95.92
74627;BME280;63132;52.268;5.192;2022-12-11T09:16:58;100941.28;;;0.91;97.61
74627;BME280;63132;52.268;5.192;2022-12-11T09:19:24;100931.88;;;1.00;98.18
74627;BME280;63132;52.268;5.192;2022-12-11T09:21:49;100934.88;;;1.20;95.11
74627;BME280;63132;52.268;5.192;2022-12-11T09:24:14;100939.50;;;1.07;97.13
74627;BME280;63132;52.268;5.192;2022-12-11T09:26:40;100937.06;;;0.93;96.82
74627;BME280;63132;52.268;5.192;2022-12-11T09:29:06;100940.94;;;1.62;93.09
74627;BME280;63132;52.268;5.192;2022-12-11T09:31:34;100935.28;;;1.09;95.50
74627;BME280;63132;52.268;5.192;2022-12-11T09:34:02;100938.72;;;1.19;95.34
74627;BME280;63132;52.268;5.192;2022-12-11T09:36:28;100936.34;;;1.17;95.69
74627;BME280;63132;52.268;5.192;2022-12-11T09:38:54;100928.38;;;1.12;96.92
74627;BME280;63132;52.268;5.192;2022-12-11T09:43:49;100939.34;;;1.36;95.97
74627;BME280;63132;52.268;5.192;2022-12-11T09:46:17;100941.28;;;1.48;96.83
74627;BME280;63132;52.268;5.192;2022-12-11T09:48:45;100944.72;;;1.57;96.71
74627;BME280;63132;52.268;5.192;2022-12-11T09:51:35;100936.91;;;1.23;95.65
74627;BME280;63132;52.268;5.192;2022-12-11T09:54:03;100935.75;;;1.11;96.22
74627;BME280;63132;52.268;5.192;2022-12-11T09:56:38;100935.13;;;1.39;97.08
74627;BME280;63132;52.268;5.192;2022-12-11T10:02:32;100924.34;;;1.43;96.28
74627;BME280;63132;52.268;5.192;2022-12-11T10:05:33;100932.84;;;1.41;95.08
74627;BME280;63132;52.268;5.192;2022-12-11T10:14:24;100933.56;;;1.62;93.72
74627;BME280;63132;52.268;5.192;2022-12-11T10:16:56;100938.81;;;1.80;95.29
74627;BME280;63132;52.268;5.192;2022-12-11T10:19:26;100943.81;;;1.65;92.98
74627;BME280;63132;52.268;5.192;2022-12-11T10:21:53;100940.72;;;1.67;94.69
74627;BME280;63132;52.268;5.192;2022-12-11T10:25:20;100939.59;;;1.68;94.52
74627;BME280;63132;52.268;5.192;2022-12-11T10:27:20;100934.25;;;1.59;94.08
74627;BME280;63132;52.268;5.192;2022-12-11T10:29:48;100928.63;;;1.31;95.52
74627;BME280;63132;52.268;5.192;2022-12-11T10:32:42;100926.94;;;1.39;95.43
74627;BME280;63132;52.268;5.192;2022-12-11T10:35:17;100923.91;;;1.65;95.95
74627;BME280;63132;52.268;5.192;2022-12-11T10:37:43;100921.25;;;1.56;95.33
74627;BME280;63132;52.268;5.192;2022-12-11T10:40:09;100921.16;;;1.77;95.39
74627;BME280;63132;52.268;5.192;2022-12-11T10:42:35;100918.78;;;1.51;94.91
74627;BME280;63132;52.268;5.192;2022-12-11T10:45:03;100920.38;;;1.77;94.67
74627;BME280;63132;52.268;5.192;2022-12-11T10:47:29;100919.69;;;1.55;95.40
74627;BME280;63132;52.268;5.192;2022-12-11T10:50:00;100920.72;;;1.87;93.65
74627;BME280;63132;52.268;5.192;2022-12-11T10:52:36;100916.50;;;1.90;95.41
74627;BME280;63132;52.268;5.192;2022-12-11T10:55:03;100917.97;;;1.51;95.65
74627;BME280;63132;52.268;5.192;2022-12-11T10:57:33;100909.69;;;1.72;95.46
74627;BME280;63132;52.268;5.192;2022-12-11T11:00:00;100918.66;;;2.09;94.17
74627;BME280;63132;52.268;5.192;2022-12-11T11:02:38;100903.06;;;2.09;92.97
74627;BME280;63132;52.268;5.192;2022-12-11T11:05:16;100905.06;;;2.12;95.83
74627;BME280;63132;52.268;5.192;2022-12-11T11:08:01;100908.31;;;1.90;93.39
74627;BME280;63132;52.268;5.192;2022-12-11T11:10:27;100904.06;;;1.92;94.12
74627;BME280;63132;52.268;5.192;2022-12-11T11:13:00;100899.66;;;1.76;93.52
74627;BME280;63132;52.268;5.192;2022-12-11T11:15:27;100906.38;;;1.66;95.64
74627;BME280;63132;52.268;5.192;2022-12-11T11:18:10;100900.59;;;1.80;93.61
74627;BME280;63132;52.268;5.192;2022-12-11T11:20:43;100903.75;;;1.82;94.35
74627;BME280;63132;52.268;5.192;2022-12-11T11:23:13;100895.56;;;1.70;95.15
74627;BME280;63132;52.268;5.192;2022-12-11T11:25:49;100893.19;;;1.56;97.05
74627;BME280;63132;52.268;5.192;2022-12-11T11:29:12;100892.50;;;1.59;95.81
74627;BME280;63132;52.268;5.192;2022-12-11T11:31:11;100900.34;;;1.60;95.94
74627;BME280;63132;52.268;5.192;2022-12-11T11:33:55;100897.16;;;1.83;95.51
74627;BME280;63132;52.268;5.192;2022-12-11T11:36:30;100883.72;;;2.02;95.17
74627;BME280;63132;52.268;5.192;2022-12-11T11:41:36;100879.69;;;2.24;92.38
74627;BME280;63132;52.268;5.192;2022-12-11T11:44:07;100888.75;;;1.88;93.71
74627;BME280;63132;52.268;5.192;2022-12-11T11:46:41;100878.25;;;2.02;94.43
74627;BME280;63132;52.268;5.192;2022-12-11T11:49:17;100876.06;;;2.08;92.56
74627;BME280;63132;52.268;5.192;2022-12-11T11:51:54;100876.63;;;2.13;93.64
74627;BME280;63132;52.268;5.192;2022-12-11T11:54:38;100879.41;;;2.01;95.58
74627;BME280;63132;52.268;5.192;2022-12-11T11:57:37;100867.91;;;1.83;95.37
74627;BME280;63132;52.268;5.192;2022-12-11T12:00:22;100873.25;;;1.92;93.93
74627;BME280;63132;52.268;5.192;2022-12-11T12:02:52;100858.00;;;2.03;93.83
74627;BME280;63132;52.268;5.192;2022-12-11T12:05:24;100865.97;;;1.84;94.61
74627;BME280;63132;52.268;5.192;2022-12-11T12:10:57;100865.19;;;1.71;95.07
74627;BME280;63132;52.268;5.192;2022-12-11T12:13:33;100864.75;;;1.81;94.65
74627;BME280;63132;52.268;5.192;2022-12-11T12:16:03;100864.75;;;1.45;96.81
74627;BME280;63132;52.268;5.192;2022-12-11T12:18:52;100871.00;;;1.33;96.47
74627;BME280;63132;52.268;5.192;2022-12-11T12:21:34;100869.44;;;1.44;96.33
74627;BME280;63132;52.268;5.192;2022-12-11T12:24:33;100871.56;;;1.75;96.03
74627;BME280;63132;52.268;5.192;2022-12-11T12:37:54;100869.50;;;1.84;96.04
74627;BME280;63132;52.268;5.192;2022-12-11T12:40:30;100867.81;;;1.67;95.29
74627;BME280;63132;52.268;5.192;2022-12-11T12:45:51;100873.06;;;1.73;97.01
74627;BME280;63132;52.268;5.192;2022-12-11T12:48:18;100872.38;;;1.51;97.19
74627;BME280;63132;52.268;5.192;2022-12-11T12:50:47;100870.28;;;2.09;96.21
74627;BME280;63132;52.268;5.192;2022-12-11T12:53:17;100863.25;;;1.96;96.37
74627;BME280;63132;52.268;5.192;2022-12-11T12:55:44;100858.13;;;1.94;95.90
74627;BME280;63132;52.268;5.192;2022-12-11T13:01:09;100857.06;;;1.99;96.70
74627;BME280;63132;52.268;5.192;2022-12-11T13:04:02;100849.31;;;2.13;95.37
74627;BME280;63132;52.268;5.192;2022-12-11T13:06:42;100839.75;;;2.47;92.21
74627;BME280;63132;52.268;5.192;2022-12-11T13:11:47;100844.13;;;2.96;88.43
74627;BME280;63132;52.268;5.192;2022-12-11T13:16:48;100845.81;;;2.85;88.30
74627;BME280;63132;52.268;5.192;2022-12-11T13:24:29;100850.69;;;2.47;91.17
74627;BME280;63132;52.268;5.192;2022-12-11T13:26:55;100858.03;;;2.75;89.92
74627;BME280;63132;52.268;5.192;2022-12-11T13:29:35;100862.66;;;2.87;90.63
74627;BME280;63132;52.268;5.192;2022-12-11T13:32:22;100857.00;;;2.80;90.22
74627;BME280;63132;52.268;5.192;2022-12-11T13:34:57;100859.03;;;2.39;90.07
74627;BME280;63132;52.268;5.192;2022-12-11T13:40:08;100867.03;;;2.32;91.83
74627;BME280;63132;52.268;5.192;2022-12-11T13:42:51;100868.63;;;2.20;93.52
74627;BME280;63132;52.268;5.192;2022-12-11T13:45:22;100861.78;;;2.27;91.33
74627;BME280;63132;52.268;5.192;2022-12-11T13:47:50;100868.41;;;2.26;93.03
74627;BME280;63132;52.268;5.192;2022-12-11T13:50:28;100862.44;;;2.64;89.38
74627;BME280;63132;52.268;5.192;2022-12-11T13:52:59;100862.16;;;2.25;91.49
74627;BME280;63132;52.268;5.192;2022-12-11T13:55:28;100864.06;;;2.53;89.01
74627;BME280;63132;52.268;5.192;2022-12-11T13:57:54;100863.41;;;2.15;92.20
74627;BME280;63132;52.268;5.192;2022-12-11T14:00:23;100865.81;;;2.45;89.23
74627;BME280;63132;52.268;5.192;2022-12-11T14:02:51;100861.00;;;2.54;90.00
74627;BME280;63132;52.268;5.192;2022-12-11T14:05:17;100865.22;;;2.52;89.45
74627;BME280;63132;52.268;5.192;2022-12-11T14:07:49;100864.16;;;2.28;89.79
74627;BME280;63132;52.268;5.192;2022-12-11T14:10:22;100866.41;;;2.38;89.42
74627;BME280;63132;52.268;5.192;2022-12-11T14:15:17;100872.94;;;1.81;91.62
74627;BME280;63132;52.268;5.192;2022-12-11T14:17:43;100864.41;;;1.83;93.30